sensor_id;sensor_type;location;lat;lon;timestamp;P1;durP1;ratioP1;P2;durP2;ratioP2
51312;SDS011;37397;53.226;10.400;2024-01-07T00:02:09;9.57;;;4.60;;
51312;SDS011;37397;53.226;10.400;2024-01-07T00:04:36;8.90;;;4.05;;
51312;SDS011;37397;53.226;10.400;2024-01-07T00:07:04;8.38;;;4.35;;
51312;SDS011;37397;53.226;10.400;2024-01-07T00:09:30;8.55;;;4.10;;
51312;SDS011;37397;53.226;10.400;2024-01-07T00:11:57;8.02;;;4.30;;
51312;SDS011;37397;53.226;10.400;2024-01-07T00:14:24;7.85;;;4.22;;
51312;SDS011;37397;53.226;10.400;2024-01-07T00:16:50;14.30;;;4.80;;
51312;SDS011;37397;53.226;10.400;2024-01-07T00:19:17;10.05;;;4.70;;
51312;SDS011;37397;53.226;10.400;2024-01-07T00:21:44;8.43;;;4.10;;
51312;SDS011;37397;53.226;10.400;2024-01-07T00:24:10;7.57;;;3.83;;
51312;SDS011;37397;53.226;10.400;2024-01-07T00:26:37;11.07;;;4.15;;
51312;SDS011;37397;53.226;10.400;2024-01-07T00:29:04;7.97;;;4.20;;
51312;SDS011;37397;53.226;10.400;2024-01-07T00:31:32;9.63;;;4.30;;
51312;SDS011;37397;53.226;10.400;2024-01-07T00:33:58;7.97;;;3.92;;
51312;SDS011;37397;53.226;10.400;2024-01-07T00:36:25;9.63;;;4.30;;
51312;SDS011;37397;53.226;10.400;2024-01-07T00:38:52;9.32;;;3.75;;
51312;SDS011;37397;53.226;10.400;2024-01-07T00:41:18;8.95;;;3.92;;
51312;SDS011;37397;53.226;10.400;2024-01-07T00:43:45;8.50;;;3.95;;
51312;SDS011;37397;53.226;10.400;2024-01-07T00:46:12;7.78;;;3.80;;
51312;SDS011;37397;53.226;10.400;2024-01-07T00:48:38;9.68;;;3.83;;
51312;SDS011;37397;53.226;10.400;2024-01-07T00:51:05;9.73;;;4.15;;
51312;SDS011;37397;53.226;10.400;2024-01-07T00:53:32;9.05;;;3.35;;
51312;SDS011;37397;53.226;10.400;2024-01-07T00:55:58;8.60;;;3.78;;
51312;SDS011;37397;53.226;10.400;2024-01-07T00:58:25;11.13;;;3.65;;
51312;SDS011;37397;53.226;10.400;2024-01-07T01:00:51;7.03;;;3.55;;
51312;SDS011;37397;53.226;10.400;2024-01-07T01:03:20;8.35;;;3.60;;
51312;SDS011;37397;53.226;10.400;2024-01-07T01:05:47;8.35;;;3.80;;
51312;SDS011;37397;53.226;10.400;2024-01-07T01:08:13;8.38;;;4.15;;
51312;SDS011;37397;53.226;10.400;2024-01-07T01:10:41;7.78;;;3.83;;
51312;SDS011;37397;53.226;10.400;2024-01-07T01:13:08;7.13;;;3.72;;
51312;SDS011;37397;53.226;10.400;2024-01-07T01:15:36;8.27;;;3.83;;
51312;SDS011;37397;53.226;10.400;2024-01-07T01:18:02;10.38;;;3.38;;
51312;SDS011;37397;53.226;10.400;2024-01-07T01:20:29;7.07;;;4.03;;
51312;SDS011;37397;53.226;10.400;2024-01-07T01:22:56;10.63;;;4.25;;
51312;SDS011;37397;53.226;10.400;2024-01-07T01:25:23;7.65;;;3.58;;
51312;SDS011;37397;53.226;10.400;2024-01-07T01:27:49;7.00;;;3.58;;
51312;SDS011;37397;53.226;10.400;2024-01-07T01:30:16;8.07;;;3.35;;
51312;SDS011;37397;53.226;10.400;2024-01-07T01:32:43;7.45;;;3.40;;
51312;SDS011;37397;53.226;10.400;2024-01-07T01:35:09;11.00;;;3.80;;
51312;SDS011;37397;53.226;10.400;2024-01-07T01:37:36;8.13;;;3.40;;
51312;SDS011;37397;53.226;10.400;2024-01-07T01:40:03;7.65;;;3.58;;
51312;SDS011;37397;53.226;10.400;2024-01-07T01:42:30;9.38;;;3.83;;
51312;SDS011;37397;53.226;10.400;2024-01-07T01:44:57;9.43;;;3.70;;
51312;SDS011;37397;53.226;10.400;2024-01-07T01:47:30;10.38;;;4.03;;
51312;SDS011;37397;53.226;10.400;2024-01-07T01:49:58;8.05;;;3.60;;
51312;SDS011;37397;53.226;10.400;2024-01-07T01:52:25;7.85;;;3.70;;
51312;SDS011;37397;53.226;10.400;2024-01-07T01:54:52;9.20;;;4.00;;
51312;SDS011;37397;53.226;10.400;2024-01-07T01:57:21;8.30;;;3.78;;
51312;SDS011;37397;53.226;10.400;2024-01-07T01:59:49;9.15;;;3.85;;
51312;SDS011;37397;53.226;10.400;2024-01-07T02:02:15;6.93;;;3.75;;
51312;SDS011;37397;53.226;10.400;2024-01-07T02:04:43;8.70;;;3.80;;
51312;SDS011;37397;53.226;10.400;2024-01-07T02:07:09;8.48;;;4.03;;
51312;SDS011;37397;53.226;10.400;2024-01-07T02:09:37;9.48;;;4.13;;
51312;SDS011;37397;53.226;10.400;2024-01-07T02:12:04;8.80;;;4.20;;
51312;SDS011;37397;53.226;10.400;2024-01-07T02:14:31;6.95;;;4.05;;
51312;SDS011;37397;53.226;10.400;2024-01-07T02:16:58;9.27;;;3.97;;
51312;SDS011;37397;53.226;10.400;2024-01-07T02:19:25;7.47;;;3.75;;
51312;SDS011;37397;53.226;10.400;2024-01-07T02:21:52;9.48;;;3.85;;
51312;SDS011;37397;53.226;10.400;2024-01-07T02:24:19;6.97;;;3.72;;
51312;SDS011;37397;53.226;10.400;2024-01-07T02:26:45;8.73;;;4.43;;
51312;SDS011;37397;53.226;10.400;2024-01-07T02:29:11;7.22;;;3.67;;
51312;SDS011;37397;53.226;10.400;2024-01-07T02:31:38;8.10;;;3.88;;
51312;SDS011;37397;53.226;10.400;2024-01-07T02:34:05;7.50;;;4.07;;
51312;SDS011;37397;53.226;10.400;2024-01-07T02:36:32;8.88;;;4.25;;
51312;SDS011;37397;53.226;10.400;2024-01-07T02:38:59;8.63;;;4.30;;
51312;SDS011;37397;53.226;10.400;2024-01-07T02:41:25;7.50;;;4.00;;
51312;SDS011;37397;53.226;10.400;2024-01-07T02:43:53;7.35;;;4.10;;
51312;SDS011;37397;53.226;10.400;2024-01-07T02:46:20;8.80;;;3.80;;
51312;SDS011;37397;53.226;10.400;2024-01-07T02:48:47;8.25;;;3.67;;
51312;SDS011;37397;53.226;10.400;2024-01-07T02:51:13;9.25;;;4.15;;
51312;SDS011;37397;53.226;10.400;2024-01-07T02:53:40;7.95;;;4.35;;
51312;SDS011;37397;53.226;10.400;2024-01-07T02:56:07;6.43;;;3.60;;
51312;SDS011;37397;53.226;10.400;2024-01-07T02:58:35;7.63;;;3.92;;
51312;SDS011;37397;53.226;10.400;2024-01-07T03:01:02;6.82;;;3.50;;
51312;SDS011;37397;53.226;10.400;2024-01-07T03:03:29;5.85;;;3.53;;
51312;SDS011;37397;53.226;10.400;2024-01-07T03:05:55;10.63;;;4.00;;
51312;SDS011;37397;53.226;10.400;2024-01-07T03:08:22;8.32;;;3.60;;
51312;SDS011;37397;53.226;10.400;2024-01-07T03:10:49;6.22;;;3.42;;
51312;SDS011;37397;53.226;10.400;2024-01-07T03:13:15;8.65;;;3.88;;
51312;SDS011;37397;53.226;10.400;2024-01-07T03:15:42;6.15;;;3.17;;
51312;SDS011;37397;53.226;10.400;2024-01-07T03:18:08;9.82;;;3.65;;
51312;SDS011;37397;53.226;10.400;2024-01-07T03:20:35;6.30;;;3.28;;
51312;SDS011;37397;53.226;10.400;2024-01-07T03:23:01;7.90;;;3.28;;
51312;SDS011;37397;53.226;10.400;2024-01-07T03:25:28;6.18;;;3.10;;
51312;SDS011;37397;53.226;10.400;2024-01-07T03:27:55;7.88;;;3.70;;
51312;SDS011;37397;53.226;10.400;2024-01-07T03:30:21;6.13;;;3.05;;
51312;SDS011;37397;53.226;10.400;2024-01-07T03:32:49;6.40;;;3.15;;
51312;SDS011;37397;53.226;10.400;2024-01-07T03:35:15;5.85;;;2.95;;
51312;SDS011;37397;53.226;10.400;2024-01-07T03:37:42;7.60;;;3.45;;
51312;SDS011;37397;53.226;10.400;2024-01-07T03:40:10;7.68;;;3.35;;
51312;SDS011;37397;53.226;10.400;2024-01-07T03:42:38;7.95;;;2.92;;
51312;SDS011;37397;53.226;10.400;2024-01-07T03:45:04;7.38;;;3.75;;
51312;SDS011;37397;53.226;10.400;2024-01-07T03:47:31;6.32;;;2.88;;
51312;SDS011;37397;53.226;10.400;2024-01-07T03:49:58;8.38;;;3.42;;
51312;SDS011;37397;53.226;10.400;2024-01-07T03:52:25;7.38;;;2.95;;
51312;SDS011;37397;53.226;10.400;2024-01-07T03:54:51;7.25;;;3.38;;
51312;SDS011;37397;53.226;10.400;2024-01-07T03:57:18;9.52;;;3.15;;
51312;SDS011;37397;53.226;10.400;2024-01-07T03:59:44;5.75;;;2.95;;
51312;SDS011;37397;53.226;10.400;2024-01-07T04:02:11;6.43;;;2.85;;
51312;SDS011;37397;53.226;10.400;2024-01-07T04:04:38;6.00;;;2.78;;
51312;SDS011;37397;53.226;10.400;2024-01-07T04:07:05;5.20;;;2.75;;
51312;SDS011;37397;53.226;10.400;2024-01-07T04:09:31;7.30;;;2.90;;
51312;SDS011;37397;53.226;10.400;2024-01-07T04:11:58;6.35;;;3.00;;
51312;SDS011;37397;53.226;10.400;2024-01-07T04:14:24;5.63;;;2.70;;
51312;SDS011;37397;53.226;10.400;2024-01-07T04:16:53;7.13;;;2.80;;
51312;SDS011;37397;53.226;10.400;2024-01-07T04:19:20;6.18;;;2.60;;
51312;SDS011;37397;53.226;10.400;2024-01-07T04:21:46;6.38;;;2.70;;
51312;SDS011;37397;53.226;10.400;2024-01-07T04:24:13;4.90;;;2.47;;
51312;SDS011;37397;53.226;10.400;2024-01-07T04:26:40;6.40;;;2.67;;
51312;SDS011;37397;53.226;10.400;2024-01-07T04:29:07;5.43;;;2.42;;
51312;SDS011;37397;53.226;10.400;2024-01-07T04:31:33;5.13;;;2.70;;
51312;SDS011;37397;53.226;10.400;2024-01-07T04:34:00;5.57;;;2.78;;
51312;SDS011;37397;53.226;10.400;2024-01-07T04:36:26;6.50;;;2.53;;
51312;SDS011;37397;53.226;10.400;2024-01-07T04:38:53;6.68;;;2.60;;
51312;SDS011;37397;53.226;10.400;2024-01-07T04:41:20;5.75;;;2.42;;
51312;SDS011;37397;53.226;10.400;2024-01-07T04:43:46;8.52;;;2.78;;
51312;SDS011;37397;53.226;10.400;2024-01-07T04:46:13;6.25;;;2.50;;
51312;SDS011;37397;53.226;10.400;2024-01-07T04:48:40;4.30;;;2.47;;
51312;SDS011;37397;53.226;10.400;2024-01-07T04:51:07;4.45;;;2.47;;
51312;SDS011;37397;53.226;10.400;2024-01-07T04:53:35;5.65;;;2.42;;
51312;SDS011;37397;53.226;10.400;2024-01-07T04:56:02;4.68;;;2.45;;
51312;SDS011;37397;53.226;10.400;2024-01-07T04:58:28;4.97;;;2.40;;
51312;SDS011;37397;53.226;10.400;2024-01-07T05:00:55;5.93;;;2.60;;
51312;SDS011;37397;53.226;10.400;2024-01-07T05:03:22;5.30;;;2.40;;
51312;SDS011;37397;53.226;10.400;2024-01-07T05:05:48;6.25;;;2.47;;
51312;SDS011;37397;53.226;10.400;2024-01-07T05:08:15;7.28;;;2.88;;
51312;SDS011;37397;53.226;10.400;2024-01-07T05:10:41;4.97;;;2.95;;
51312;SDS011;37397;53.226;10.400;2024-01-07T05:13:08;9.65;;;2.97;;
51312;SDS011;37397;53.226;10.400;2024-01-07T05:15:35;7.25;;;2.95;;
51312;SDS011;37397;53.226;10.400;2024-01-07T05:18:01;5.47;;;2.83;;
51312;SDS011;37397;53.226;10.400;2024-01-07T05:20:28;5.57;;;3.08;;
51312;SDS011;37397;53.226;10.400;2024-01-07T05:22:55;6.03;;;3.05;;
51312;SDS011;37397;53.226;10.400;2024-01-07T05:25:21;4.88;;;2.67;;
51312;SDS011;37397;53.226;10.400;2024-01-07T05:27:48;6.50;;;2.70;;
51312;SDS011;37397;53.226;10.400;2024-01-07T05:30:15;8.63;;;2.90;;
51312;SDS011;37397;53.226;10.400;2024-01-07T05:32:41;7.35;;;2.97;;
51312;SDS011;37397;53.226;10.400;2024-01-07T05:35:08;6.30;;;2.75;;
51312;SDS011;37397;53.226;10.400;2024-01-07T05:37:35;6.47;;;2.60;;
51312;SDS011;37397;53.226;10.400;2024-01-07T05:40:01;5.35;;;2.60;;
51312;SDS011;37397;53.226;10.400;2024-01-07T05:42:28;4.45;;;2.38;;
51312;SDS011;37397;53.226;10.400;2024-01-07T05:44:54;8.23;;;2.90;;
51312;SDS011;37397;53.226;10.400;2024-01-07T05:47:21;5.80;;;2.55;;
51312;SDS011;37397;53.226;10.400;2024-01-07T05:49:47;5.68;;;2.55;;
51312;SDS011;37397;53.226;10.400;2024-01-07T05:52:15;5.97;;;2.85;;
51312;SDS011;37397;53.226;10.400;2024-01-07T05:54:41;7.07;;;3.10;;
51312;SDS011;37397;53.226;10.400;2024-01-07T05:57:08;6.45;;;3.17;;
51312;SDS011;37397;53.226;10.400;2024-01-07T05:59:34;8.05;;;2.90;;
51312;SDS011;37397;53.226;10.400;2024-01-07T06:02:01;6.45;;;2.75;;
51312;SDS011;37397;53.226;10.400;2024-01-07T06:04:27;4.43;;;2.50;;
51312;SDS011;37397;53.226;10.400;2024-01-07T06:06:54;6.25;;;2.88;;
51312;SDS011;37397;53.226;10.400;2024-01-07T06:09:21;5.80;;;2.60;;
51312;SDS011;37397;53.226;10.400;2024-01-07T06:11:48;7.07;;;2.85;;
51312;SDS011;37397;53.226;10.400;2024-01-07T06:14:14;5.65;;;2.75;;
51312;SDS011;37397;53.226;10.400;2024-01-07T06:16:41;8.80;;;3.22;;
51312;SDS011;37397;53.226;10.400;2024-01-07T06:19:08;7.25;;;3.25;;
51312;SDS011;37397;53.226;10.400;2024-01-07T06:21:35;7.15;;;2.80;;
51312;SDS011;37397;53.226;10.400;2024-01-07T06:24:02;6.60;;;3.05;;
51312;SDS011;37397;53.226;10.400;2024-01-07T06:26:28;6.30;;;2.70;;
51312;SDS011;37397;53.226;10.400;2024-01-07T06:28:55;6.50;;;3.00;;
51312;SDS011;37397;53.226;10.400;2024-01-07T06:31:21;4.65;;;2.58;;
51312;SDS011;37397;53.226;10.400;2024-01-07T06:33:48;6.65;;;2.65;;
51312;SDS011;37397;53.226;10.400;2024-01-07T06:36:15;7.20;;;2.88;;
51312;SDS011;37397;53.226;10.400;2024-01-07T06:38:41;5.22;;;2.92;;
51312;SDS011;37397;53.226;10.400;2024-01-07T06:41:09;7.10;;;3.15;;
51312;SDS011;37397;53.226;10.400;2024-01-07T06:43:36;6.07;;;2.90;;
51312;SDS011;37397;53.226;10.400;2024-01-07T06:46:02;6.07;;;2.90;;
51312;SDS011;37397;53.226;10.400;2024-01-07T06:48:29;7.35;;;3.03;;
51312;SDS011;37397;53.226;10.400;2024-01-07T06:50:56;5.40;;;2.75;;
51312;SDS011;37397;53.226;10.400;2024-01-07T06:53:23;6.43;;;2.75;;
51312;SDS011;37397;53.226;10.400;2024-01-07T06:55:50;7.13;;;3.10;;
51312;SDS011;37397;53.226;10.400;2024-01-07T06:58:16;5.57;;;3.00;;
51312;SDS011;37397;53.226;10.400;2024-01-07T07:00:43;7.88;;;3.22;;
51312;SDS011;37397;53.226;10.400;2024-01-07T07:03:10;6.63;;;3.13;;
51312;SDS011;37397;53.226;10.400;2024-01-07T07:05:37;7.65;;;3.80;;
51312;SDS011;37397;53.226;10.400;2024-01-07T07:08:05;8.52;;;3.33;;
51312;SDS011;37397;53.226;10.400;2024-01-07T07:10:31;7.40;;;3.20;;
51312;SDS011;37397;53.226;10.400;2024-01-07T07:12:58;10.07;;;3.58;;
51312;SDS011;37397;53.226;10.400;2024-01-07T07:15:24;6.95;;;2.90;;
51312;SDS011;37397;53.226;10.400;2024-01-07T07:17:53;5.68;;;2.83;;
51312;SDS011;37397;53.226;10.400;2024-01-07T07:20:19;6.97;;;3.17;;
51312;SDS011;37397;53.226;10.400;2024-01-07T07:22:46;7.68;;;2.88;;
51312;SDS011;37397;53.226;10.400;2024-01-07T07:25:12;6.13;;;2.90;;
51312;SDS011;37397;53.226;10.400;2024-01-07T07:27:39;4.75;;;2.78;;
51312;SDS011;37397;53.226;10.400;2024-01-07T07:30:06;6.70;;;3.40;;
51312;SDS011;37397;53.226;10.400;2024-01-07T07:32:33;8.40;;;3.15;;
51312;SDS011;37397;53.226;10.400;2024-01-07T07:35:00;6.43;;;2.85;;
51312;SDS011;37397;53.226;10.400;2024-01-07T07:37:26;7.50;;;3.00;;
51312;SDS011;37397;53.226;10.400;2024-01-07T07:39:53;8.18;;;2.83;;
51312;SDS011;37397;53.226;10.400;2024-01-07T07:42:20;7.15;;;3.58;;
51312;SDS011;37397;53.226;10.400;2024-01-07T07:44:47;7.10;;;3.20;;
51312;SDS011;37397;53.226;10.400;2024-01-07T07:47:14;6.43;;;3.17;;
51312;SDS011;37397;53.226;10.400;2024-01-07T07:49:40;6.70;;;3.15;;
51312;SDS011;37397;53.226;10.400;2024-01-07T07:52:07;7.55;;;3.08;;
51312;SDS011;37397;53.226;10.400;2024-01-07T07:54:38;7.63;;;3.00;;
51312;SDS011;37397;53.226;10.400;2024-01-07T07:57:05;6.80;;;2.92;;
51312;SDS011;37397;53.226;10.400;2024-01-07T07:59:31;6.88;;;3.50;;
51312;SDS011;37397;53.226;10.400;2024-01-07T08:01:58;5.70;;;3.13;;
51312;SDS011;37397;53.226;10.400;2024-01-07T08:04:26;5.70;;;2.90;;
51312;SDS011;37397;53.226;10.400;2024-01-07T08:06:53;8.93;;;3.47;;
51312;SDS011;37397;53.226;10.400;2024-01-07T08:09:20;7.70;;;3.20;;
51312;SDS011;37397;53.226;10.400;2024-01-07T08:11:46;7.15;;;2.80;;
51312;SDS011;37397;53.226;10.400;2024-01-07T08:14:13;6.22;;;2.90;;
51312;SDS011;37397;53.226;10.400;2024-01-07T08:16:39;6.72;;;3.22;;
51312;SDS011;37397;53.226;10.400;2024-01-07T08:19:05;6.07;;;3.03;;
51312;SDS011;37397;53.226;10.400;2024-01-07T08:21:32;6.50;;;2.97;;
51312;SDS011;37397;53.226;10.400;2024-01-07T08:24:01;6.70;;;2.88;;
51312;SDS011;37397;53.226;10.400;2024-01-07T08:26:30;7.28;;;3.25;;
51312;SDS011;37397;53.226;10.400;2024-01-07T08:28:57;8.57;;;3.40;;
51312;SDS011;37397;53.226;10.400;2024-01-07T08:31:24;7.60;;;2.92;;
51312;SDS011;37397;53.226;10.400;2024-01-07T08:33:51;11.23;;;3.13;;
51312;SDS011;37397;53.226;10.400;2024-01-07T08:36:17;7.68;;;3.00;;
51312;SDS011;37397;53.226;10.400;2024-01-07T08:38:44;5.40;;;2.90;;
51312;SDS011;37397;53.226;10.400;2024-01-07T08:41:15;7.57;;;2.90;;
51312;SDS011;37397;53.226;10.400;2024-01-07T08:43:42;7.22;;;3.47;;
51312;SDS011;37397;53.226;10.400;2024-01-07T08:46:08;7.93;;;3.35;;
51312;SDS011;37397;53.226;10.400;2024-01-07T08:48:35;8.40;;;2.70;;
51312;SDS011;37397;53.226;10.400;2024-01-07T08:51:02;5.68;;;2.80;;
51312;SDS011;37397;53.226;10.400;2024-01-07T08:53:29;9.52;;;3.58;;
51312;SDS011;37397;53.226;10.400;2024-01-07T08:55:56;7.90;;;2.97;;
51312;SDS011;37397;53.226;10.400;2024-01-07T08:58:22;7.78;;;3.40;;
51312;SDS011;37397;53.226;10.400;2024-01-07T09:00:49;8.82;;;3.25;;
51312;SDS011;37397;53.226;10.400;2024-01-07T09:03:15;7.78;;;2.85;;
51312;SDS011;37397;53.226;10.400;2024-01-07T09:05:42;7.30;;;2.63;;
51312;SDS011;37397;53.226;10.400;2024-01-07T09:08:09;5.40;;;2.92;;
51312;SDS011;37397;53.226;10.400;2024-01-07T09:10:37;7.88;;;2.95;;
51312;SDS011;37397;53.226;10.400;2024-01-07T09:13:04;7.80;;;3.22;;
51312;SDS011;37397;53.226;10.400;2024-01-07T09:15:30;7.43;;;3.13;;
51312;SDS011;37397;53.226;10.400;2024-01-07T09:17:57;8.13;;;3.20;;
51312;SDS011;37397;53.226;10.400;2024-01-07T09:20:23;9.10;;;3.28;;
51312;SDS011;37397;53.226;10.400;2024-01-07T09:22:50;6.28;;;3.22;;
51312;SDS011;37397;53.226;10.400;2024-01-07T09:25:17;5.60;;;2.85;;
51312;SDS011;37397;53.226;10.400;2024-01-07T09:27:44;9.13;;;3.30;;
51312;SDS011;37397;53.226;10.400;2024-01-07T09:30:10;6.63;;;2.83;;
51312;SDS011;37397;53.226;10.400;2024-01-07T09:32:41;8.80;;;3.10;;
51312;SDS011;37397;53.226;10.400;2024-01-07T09:35:08;8.88;;;3.28;;
51312;SDS011;37397;53.226;10.400;2024-01-07T09:37:35;6.70;;;3.15;;
51312;SDS011;37397;53.226;10.400;2024-01-07T09:40:02;8.32;;;3.35;;
51312;SDS011;37397;53.226;10.400;2024-01-07T09:42:30;6.72;;;3.10;;
51312;SDS011;37397;53.226;10.400;2024-01-07T09:44:57;5.90;;;3.00;;
51312;SDS011;37397;53.226;10.400;2024-01-07T09:47:30;6.75;;;3.22;;
51312;SDS011;37397;53.226;10.400;2024-01-07T09:49:56;5.78;;;3.13;;
51312;SDS011;37397;53.226;10.400;2024-01-07T09:52:23;7.15;;;3.30;;
51312;SDS011;37397;53.226;10.400;2024-01-07T09:54:51;7.82;;;3.13;;
51312;SDS011;37397;53.226;10.400;2024-01-07T09:57:26;8.40;;;3.88;;
51312;SDS011;37397;53.226;10.400;2024-01-07T09:59:53;10.20;;;3.28;;
51312;SDS011;37397;53.226;10.400;2024-01-07T10:02:20;6.55;;;3.30;;
51312;SDS011;37397;53.226;10.400;2024-01-07T10:04:49;5.72;;;3.25;;
51312;SDS011;37397;53.226;10.400;2024-01-07T10:07:16;7.72;;;3.08;;
51312;SDS011;37397;53.226;10.400;2024-01-07T10:09:43;8.05;;;3.45;;
51312;SDS011;37397;53.226;10.400;2024-01-07T10:12:10;8.43;;;3.35;;
51312;SDS011;37397;53.226;10.400;2024-01-07T10:14:38;8.18;;;3.80;;
51312;SDS011;37397;53.226;10.400;2024-01-07T10:17:15;7.88;;;3.97;;
51312;SDS011;37397;53.226;10.400;2024-01-07T10:19:43;10.50;;;3.72;;
51312;SDS011;37397;53.226;10.400;2024-01-07T10:22:12;7.68;;;3.80;;
51312;SDS011;37397;53.226;10.400;2024-01-07T10:24:39;8.68;;;4.10;;
51312;SDS011;37397;53.226;10.400;2024-01-07T10:27:08;5.90;;;3.30;;
51312;SDS011;37397;53.226;10.400;2024-01-07T10:29:35;12.82;;;4.15;;
51312;SDS011;37397;53.226;10.400;2024-01-07T10:32:02;9.23;;;3.92;;
51312;SDS011;37397;53.226;10.400;2024-01-07T10:34:32;9.50;;;3.70;;
51312;SDS011;37397;53.226;10.400;2024-01-07T10:37:00;8.18;;;4.15;;
51312;SDS011;37397;53.226;10.400;2024-01-07T10:39:28;7.72;;;4.00;;
51312;SDS011;37397;53.226;10.400;2024-01-07T10:41:55;7.13;;;3.53;;
51312;SDS011;37397;53.226;10.400;2024-01-07T10:44:25;9.23;;;4.05;;
51312;SDS011;37397;53.226;10.400;2024-01-07T10:46:56;9.27;;;4.25;;
51312;SDS011;37397;53.226;10.400;2024-01-07T10:49:25;9.75;;;4.32;;
51312;SDS011;37397;53.226;10.400;2024-01-07T10:52:27;10.65;;;4.03;;
51312;SDS011;37397;53.226;10.400;2024-01-07T10:54:46;7.57;;;4.00;;
51312;SDS011;37397;53.226;10.400;2024-01-07T11:00:00;9.40;;;4.07;;
51312;SDS011;37397;53.226;10.400;2024-01-07T11:02:27;9.90;;;4.03;;
51312;SDS011;37397;53.226;10.400;2024-01-07T11:07:37;9.13;;;4.35;;
51312;SDS011;37397;53.226;10.400;2024-01-07T11:10:09;8.52;;;4.15;;
51312;SDS011;37397;53.226;10.400;2024-01-07T11:12:40;8.32;;;3.90;;
51312;SDS011;37397;53.226;10.400;2024-01-07T11:15:06;9.65;;;3.67;;
51312;SDS011;37397;53.226;10.400;2024-01-07T11:17:42;9.57;;;4.53;;
51312;SDS011;37397;53.226;10.400;2024-01-07T11:20:13;8.77;;;4.65;;
51312;SDS011;37397;53.226;10.400;2024-01-07T11:22:44;11.23;;;4.50;;
51312;SDS011;37397;53.226;10.400;2024-01-07T11:25:27;8.93;;;4.15;;
51312;SDS011;37397;53.226;10.400;2024-01-07T11:27:56;7.72;;;4.10;;
51312;SDS011;37397;53.226;10.400;2024-01-07T11:30:24;9.57;;;4.10;;
51312;SDS011;37397;53.226;10.400;2024-01-07T11:32:58;11.63;;;4.50;;
51312;SDS011;37397;53.226;10.400;2024-01-07T11:38:20;11.13;;;4.55;;
51312;SDS011;37397;53.226;10.400;2024-01-07T11:40:46;8.65;;;3.90;;
51312;SDS011;37397;53.226;10.400;2024-01-07T11:43:15;10.13;;;3.90;;
51312;SDS011;37397;53.226;10.400;2024-01-07T11:45:42;8.88;;;3.88;;
51312;SDS011;37397;53.226;10.400;2024-01-07T11:48:09;6.75;;;3.47;;
51312;SDS011;37397;53.226;10.400;2024-01-07T11:50:35;8.00;;;3.50;;
51312;SDS011;37397;53.226;10.400;2024-01-07T11:53:02;6.90;;;3.50;;
51312;SDS011;37397;53.226;10.400;2024-01-07T11:55:28;7.60;;;3.33;;
51312;SDS011;37397;53.226;10.400;2024-01-07T11:58:00;5.85;;;3.25;;
51312;SDS011;37397;53.226;10.400;2024-01-07T12:00:30;5.70;;;2.80;;
51312;SDS011;37397;53.226;10.400;2024-01-07T12:03:02;7.60;;;3.30;;
51312;SDS011;37397;53.226;10.400;2024-01-07T12:05:29;5.68;;;3.10;;
51312;SDS011;37397;53.226;10.400;2024-01-07T12:07:56;6.60;;;2.88;;
51312;SDS011;37397;53.226;10.400;2024-01-07T12:10:23;7.10;;;2.90;;
51312;SDS011;37397;53.226;10.400;2024-01-07T12:12:50;6.57;;;2.95;;
51312;SDS011;37397;53.226;10.400;2024-01-07T12:15:20;6.03;;;2.80;;
51312;SDS011;37397;53.226;10.400;2024-01-07T12:17:58;5.60;;;2.70;;
51312;SDS011;37397;53.226;10.400;2024-01-07T12:20:27;7.18;;;2.70;;
51312;SDS011;37397;53.226;10.400;2024-01-07T12:22:57;6.40;;;3.15;;
51312;SDS011;37397;53.226;10.400;2024-01-07T12:25:25;6.90;;;2.72;;
51312;SDS011;37397;53.226;10.400;2024-01-07T12:27:51;6.25;;;2.80;;
51312;SDS011;37397;53.226;10.400;2024-01-07T12:30:20;7.32;;;2.78;;
51312;SDS011;37397;53.226;10.400;2024-01-07T12:32:47;7.20;;;2.75;;
51312;SDS011;37397;53.226;10.400;2024-01-07T12:35:13;5.88;;;2.80;;
51312;SDS011;37397;53.226;10.400;2024-01-07T12:37:41;7.75;;;3.17;;
51312;SDS011;37397;53.226;10.400;2024-01-07T12:40:08;5.68;;;2.75;;
51312;SDS011;37397;53.226;10.400;2024-01-07T12:42:37;6.00;;;2.67;;
51312;SDS011;37397;53.226;10.400;2024-01-07T12:45:06;5.53;;;2.80;;
51312;SDS011;37397;53.226;10.400;2024-01-07T12:47:34;6.40;;;3.00;;
51312;SDS011;37397;53.226;10.400;2024-01-07T12:50:01;8.13;;;2.90;;
51312;SDS011;37397;53.226;10.400;2024-01-07T12:52:28;6.35;;;2.88;;
51312;SDS011;37397;53.226;10.400;2024-01-07T12:54:55;5.10;;;2.60;;
51312;SDS011;37397;53.226;10.400;2024-01-07T12:57:22;5.47;;;2.20;;
51312;SDS011;37397;53.226;10.400;2024-01-07T12:59:50;5.22;;;2.35;;
51312;SDS011;37397;53.226;10.400;2024-01-07T13:02:16;7.78;;;2.55;;
51312;SDS011;37397;53.226;10.400;2024-01-07T13:04:43;5.82;;;2.35;;
51312;SDS011;37397;53.226;10.400;2024-01-07T13:07:09;4.60;;;2.35;;
51312;SDS011;37397;53.226;10.400;2024-01-07T13:09:36;8.65;;;3.08;;
51312;SDS011;37397;53.226;10.400;2024-01-07T13:12:03;7.47;;;3.45;;
51312;SDS011;37397;53.226;10.400;2024-01-07T13:14:30;6.65;;;3.83;;
51312;SDS011;37397;53.226;10.400;2024-01-07T13:16:57;8.60;;;3.63;;
51312;SDS011;37397;53.226;10.400;2024-01-07T13:19:23;8.55;;;3.88;;
51312;SDS011;37397;53.226;10.400;2024-01-07T13:21:52;10.10;;;4.15;;
51312;SDS011;37397;53.226;10.400;2024-01-07T13:24:21;9.95;;;4.15;;
51312;SDS011;37397;53.226;10.400;2024-01-07T13:26:48;16.70;;;4.70;;
51312;SDS011;37397;53.226;10.400;2024-01-07T13:29:14;14.85;;;4.88;;
51312;SDS011;37397;53.226;10.400;2024-01-07T13:31:41;10.23;;;4.55;;
51312;SDS011;37397;53.226;10.400;2024-01-07T13:34:07;11.25;;;4.75;;
51312;SDS011;37397;53.226;10.400;2024-01-07T13:36:35;11.43;;;4.25;;
51312;SDS011;37397;53.226;10.400;2024-01-07T13:39:01;9.73;;;4.32;;
51312;SDS011;37397;53.226;10.400;2024-01-07T13:41:28;7.40;;;3.72;;
51312;SDS011;37397;53.226;10.400;2024-01-07T13:43:55;8.35;;;3.60;;
51312;SDS011;37397;53.226;10.400;2024-01-07T13:46:25;10.82;;;4.43;;
51312;SDS011;37397;53.226;10.400;2024-01-07T13:48:54;7.72;;;3.95;;
51312;SDS011;37397;53.226;10.400;2024-01-07T13:51:21;8.02;;;3.80;;
51312;SDS011;37397;53.226;10.400;2024-01-07T13:53:47;9.30;;;4.05;;
51312;SDS011;37397;53.226;10.400;2024-01-07T13:56:14;7.18;;;3.53;;
51312;SDS011;37397;53.226;10.400;2024-01-07T13:58:41;6.75;;;3.90;;
51312;SDS011;37397;53.226;10.400;2024-01-07T14:01:10;8.05;;;3.88;;
51312;SDS011;37397;53.226;10.400;2024-01-07T14:03:37;10.68;;;3.95;;
51312;SDS011;37397;53.226;10.400;2024-01-07T14:06:04;7.55;;;3.33;;
51312;SDS011;37397;53.226;10.400;2024-01-07T14:08:30;6.72;;;3.67;;
51312;SDS011;37397;53.226;10.400;2024-01-07T14:10:57;7.55;;;3.28;;
51312;SDS011;37397;53.226;10.400;2024-01-07T14:13:24;8.05;;;3.58;;
51312;SDS011;37397;53.226;10.400;2024-01-07T14:15:50;8.30;;;4.00;;
51312;SDS011;37397;53.226;10.400;2024-01-07T14:18:17;6.60;;;3.70;;
51312;SDS011;37397;53.226;10.400;2024-01-07T14:20:48;7.43;;;4.18;;
51312;SDS011;37397;53.226;10.400;2024-01-07T14:23:14;8.18;;;4.10;;
51312;SDS011;37397;53.226;10.400;2024-01-07T14:25:41;11.80;;;4.28;;
51312;SDS011;37397;53.226;10.400;2024-01-07T14:28:08;9.18;;;3.72;;
51312;SDS011;37397;53.226;10.400;2024-01-07T14:30:34;9.00;;;4.22;;
51312;SDS011;37397;53.226;10.400;2024-01-07T14:33:01;9.05;;;4.10;;
51312;SDS011;37397;53.226;10.400;2024-01-07T14:35:28;8.02;;;3.80;;
51312;SDS011;37397;53.226;10.400;2024-01-07T14:37:59;8.93;;;4.05;;
51312;SDS011;37397;53.226;10.400;2024-01-07T14:40:26;7.13;;;3.83;;
51312;SDS011;37397;53.226;10.400;2024-01-07T14:42:53;8.07;;;4.32;;